createdAt,value
2019-04-23T00:00:13.539Z,0.00
2019-04-23T00:01:23.830Z,0.00
2019-04-23T00:02:13.463Z,0.00
2019-04-23T00:03:13.986Z,0.00
2019-04-23T00:04:10.401Z,0.00
2019-04-23T00:05:21.532Z,0.00
2019-04-23T00:06:18.987Z,0.00
2019-04-23T00:07:15.714Z,0.00
2019-04-23T00:08:17.411Z,0.00
2019-04-23T00:09:22.405Z,0.00
2019-04-23T00:11:15.722Z,0.00
2019-04-23T00:12:26.490Z,0.00
2019-04-23T00:13:12.472Z,0.00
2019-04-23T00:15:10.647Z,0.00
2019-04-23T00:17:14.991Z,0.00
2019-04-23T00:18:14.755Z,0.00
2019-04-23T00:19:11.741Z,0.00
2019-04-23T00:20:14.295Z,0.00
2019-04-23T00:21:13.533Z,0.00
2019-04-23T00:22:17.895Z,0.00
2019-04-23T00:23:11.416Z,0.00
2019-04-23T00:24:23.861Z,0.00
2019-04-23T00:25:38.103Z,0.00
2019-04-23T00:26:17.744Z,0.00
2019-04-23T00:27:22.615Z,0.00
2019-04-23T00:29:19.969Z,0.00
2019-04-23T00:30:10.385Z,0.00
2019-04-23T00:31:19.545Z,0.00
2019-04-23T00:32:15.120Z,0.00
2019-04-23T00:33:21.969Z,0.00
2019-04-23T00:34:16.389Z,0.00
2019-04-23T00:35:12.587Z,0.00
2019-04-23T00:36:19.859Z,0.00
2019-04-23T00:37:18.877Z,0.00
2019-04-23T00:38:18.384Z,0.00
2019-04-23T00:39:13.856Z,0.00
2019-04-23T00:40:12.116Z,0.00
2019-04-23T00:41:15.987Z,0.00
2019-04-23T00:42:16.846Z,0.00
2019-04-23T00:43:15.058Z,0.00
2019-04-23T00:44:15.041Z,0.00
2019-04-23T00:45:12.359Z,0.00
2019-04-23T00:46:15.519Z,0.00
2019-04-23T00:47:14.309Z,0.00
2019-04-23T00:48:24.159Z,0.00
2019-04-23T00:50:38.537Z,0.00
2019-04-23T00:51:20.269Z,0.00
2019-04-23T00:52:24.607Z,0.00
2019-04-23T00:53:18.911Z,0.00
2019-04-23T00:54:20.779Z,0.00
2019-04-23T00:56:32.331Z,0.00
2019-04-23T00:57:16.384Z,0.00
2019-04-23T00:59:12.635Z,0.00
2019-04-23T01:00:24.293Z,0.00
2019-04-23T01:01:12.934Z,0.00
2019-04-23T01:02:18.117Z,0.00
2019-04-23T01:03:12.554Z,0.00
2019-04-23T01:04:15.930Z,0.00
2019-04-23T01:05:17.957Z,0.00
2019-04-23T01:06:13.012Z,0.00
2019-04-23T01:07:11.339Z,0.00
2019-04-23T01:08:26.435Z,0.00
2019-04-23T01:09:14.267Z,0.00
2019-04-23T01:10:15.024Z,0.00
2019-04-23T01:11:11.245Z,0.00
2019-04-23T01:12:14.233Z,0.00
2019-04-23T01:13:14.632Z,0.00
2019-04-23T01:14:18.023Z,0.00
2019-04-23T01:15:21.299Z,0.00
2019-04-23T01:16:11.601Z,0.00
2019-04-23T01:17:22.136Z,0.00
2019-04-23T01:18:24.092Z,0.00
2019-04-23T01:19:07.990Z,0.00
2019-04-23T01:20:12.520Z,0.00
2019-04-23T01:20:54.197Z,0.00
2019-04-23T01:21:51.487Z,0.00
2019-04-23T01:22:50.882Z,0.00
2019-04-23T01:23:56.434Z,0.00
2019-04-23T01:24:52.967Z,0.00
2019-04-23T01:26:00.351Z,0.00
2019-04-23T01:27:35.384Z,0.00
2019-04-23T01:28:14.001Z,0.00
2019-04-23T01:29:35.824Z,0.00
2019-04-23T01:30:15.901Z,0.00
2019-04-23T01:32:20.947Z,0.00
2019-04-23T01:33:31.337Z,0.00
2019-04-23T01:34:22.454Z,0.00
2019-04-23T01:36:21.766Z,0.00
2019-04-23T01:37:19.049Z,0.00
2019-04-23T01:38:18.695Z,0.00
2019-04-23T01:39:17.823Z,0.00
2019-04-23T01:40:19.204Z,0.00
2019-04-23T01:41:21.719Z,0.00
2019-04-23T01:42:22.872Z,0.00
2019-04-23T01:43:16.716Z,0.00
2019-04-23T01:44:24.005Z,0.00
2019-04-23T01:45:20.333Z,0.00
2019-04-23T01:46:12.816Z,0.00
2019-04-23T01:47:18.685Z,0.00
2019-04-23T01:48:13.250Z,0.00
2019-04-23T01:49:20.776Z,0.00
2019-04-23T01:50:21.898Z,0.00
2019-04-23T01:51:22.515Z,0.00
2019-04-23T01:52:24.977Z,0.00
2019-04-23T01:53:18.407Z,0.00
2019-04-23T01:54:22.202Z,0.00
2019-04-23T01:55:24.422Z,0.00
2019-04-23T01:56:19.707Z,0.00
2019-04-23T01:57:18.120Z,0.00
2019-04-23T01:59:18.325Z,0.00
2019-04-23T02:01:18.988Z,0.00
2019-04-23T02:02:22.819Z,0.00
2019-04-23T02:03:18.154Z,0.00
2019-04-23T02:04:36.517Z,0.00
2019-04-23T02:05:23.206Z,0.00
2019-04-23T02:07:24.470Z,0.00
2019-04-23T02:08:14.552Z,0.00
2019-04-23T02:09:18.439Z,0.00
2019-04-23T02:10:33.281Z,0.00
2019-04-23T02:11:13.278Z,0.00
2019-04-23T02:12:21.434Z,0.00
2019-04-23T02:14:14.334Z,0.00
2019-04-23T02:15:18.054Z,0.00
2019-04-23T02:16:19.310Z,0.00
2019-04-23T02:17:17.131Z,0.00
2019-04-23T02:18:17.956Z,0.00
2019-04-23T02:19:23.817Z,0.00
2019-04-23T02:20:25.931Z,0.00
2019-04-23T02:21:15.370Z,0.00
2019-04-23T02:22:28.488Z,0.00
2019-04-23T02:23:18.614Z,0.00
2019-04-23T02:24:12.127Z,0.00
2019-04-23T02:25:24.866Z,0.00
2019-04-23T02:26:16.560Z,0.00
2019-04-23T02:27:20.002Z,0.00
2019-04-23T02:28:32.874Z,0.00
2019-04-23T02:29:30.011Z,0.00
2019-04-23T02:30:40.122Z,0.00
2019-04-23T02:31:43.725Z,0.00
2019-04-23T02:32:23.761Z,0.00
2019-04-23T02:34:31.242Z,0.00
2019-04-23T02:35:36.993Z,0.00
2019-04-23T02:36:11.192Z,0.00
2019-04-23T02:39:21.841Z,0.00
2019-04-23T02:40:26.328Z,0.00
2019-04-23T02:41:27.665Z,0.00
2019-04-23T02:42:59.381Z,0.00
2019-04-23T02:43:16.273Z,0.00
2019-04-23T02:44:34.929Z,0.00
2019-04-23T02:46:43.864Z,0.00
2019-04-23T02:48:24.108Z,0.00
2019-04-23T02:49:27.073Z,0.00
2019-04-23T02:52:24.897Z,0.00
2019-04-23T02:53:45.538Z,0.00
2019-04-23T02:54:37.564Z,0.00
2019-04-23T02:55:27.118Z,0.00
2019-04-23T02:56:34.736Z,0.00
2019-04-23T02:57:24.707Z,0.00
2019-04-23T02:58:28.167Z,0.00
2019-04-23T02:59:28.532Z,0.00
2019-04-23T03:01:27.493Z,0.00
2019-04-23T03:04:28.723Z,0.00
2019-04-23T03:05:22.191Z,0.00
2019-04-23T03:06:19.161Z,0.00
2019-04-23T03:08:26.974Z,0.00
2019-04-23T03:09:27.863Z,0.00
2019-04-23T03:10:24.667Z,0.00
2019-04-23T03:12:32.010Z,0.00
2019-04-23T03:15:28.290Z,0.00
2019-04-23T03:16:31.769Z,0.00
2019-04-23T03:17:31.018Z,0.00
2019-04-23T03:19:25.591Z,0.00
2019-04-23T03:22:25.112Z,0.00
2019-04-23T03:24:34.198Z,0.00
2019-04-23T03:25:31.892Z,0.00
2019-04-23T03:26:40.733Z,0.00
2019-04-23T03:28:27.344Z,0.00
2019-04-23T03:29:49.226Z,0.00
2019-04-23T03:30:33.430Z,0.00
2019-04-23T03:36:17.275Z,4.00
2019-04-23T03:37:34.041Z,4.00
2019-04-23T03:38:41.628Z,4.00
2019-04-23T03:39:30.519Z,4.00
2019-04-23T03:40:13.782Z,8.00
2019-04-23T03:41:29.529Z,12.00
2019-04-23T03:43:27.082Z,12.00
2019-04-23T03:44:25.011Z,16.00
2019-04-23T03:45:36.860Z,20.00
2019-04-23T03:47:24.969Z,28.00
2019-04-23T03:48:34.001Z,32.00
2019-04-23T03:49:19.447Z,36.00
2019-04-23T03:50:37.978Z,44.00
2019-04-23T03:51:26.035Z,48.00
2019-04-23T03:52:27.843Z,56.00
2019-04-23T03:54:33.794Z,76.00
2019-04-23T03:55:32.757Z,88.00
2019-04-23T03:57:24.500Z,112.00
2019-04-23T03:58:27.911Z,124.00
2019-04-23T04:03:57.993Z,220.00
2019-04-23T04:04:26.923Z,244.00
2019-04-23T04:05:33.411Z,272.00
2019-04-23T04:06:33.735Z,300.00
2019-04-23T04:10:24.358Z,420.00
2019-04-23T04:11:21.899Z,456.00
2019-04-23T04:12:34.841Z,492.00
2019-04-23T04:13:31.050Z,528.00
2019-04-23T04:15:53.664Z,608.00
2019-04-23T04:16:17.926Z,648.00
2019-04-23T04:17:19.766Z,692.00
2019-04-23T04:20:35.623Z,836.00
2019-04-23T04:21:27.313Z,884.00
2019-04-23T04:22:28.863Z,932.00
2019-04-23T04:24:29.549Z,1036.00
2019-04-23T04:25:30.516Z,1092.00
2019-04-23T04:26:32.718Z,1144.00
2019-04-23T04:27:31.695Z,1196.00
2019-04-23T04:29:35.040Z,1312.00
2019-04-23T04:30:29.581Z,1364.00
2019-04-23T04:31:21.894Z,1420.00
2019-04-23T04:32:15.112Z,1476.00
2019-04-23T04:34:43.806Z,1588.00
2019-04-23T04:35:24.945Z,1648.00
2019-04-23T04:36:45.600Z,1700.00
2019-04-23T04:38:38.507Z,1820.00
2019-04-23T04:40:39.535Z,1932.00
2019-04-23T04:41:29.087Z,1988.00
2019-04-23T04:42:14.827Z,2048.00
2019-04-23T04:46:35.431Z,2280.00
2019-04-23T04:47:28.045Z,2340.00
2019-04-23T04:48:23.151Z,2400.00
2019-04-23T04:49:25.520Z,2456.00
2019-04-23T04:50:16.917Z,2508.00
2019-04-23T04:51:29.043Z,2560.00
2019-04-23T04:52:34.549Z,2616.00
2019-04-23T04:54:21.346Z,2728.00
2019-04-23T04:55:23.781Z,2784.00
2019-04-23T04:57:30.236Z,2888.00
2019-04-23T04:58:40.707Z,2944.00
2019-04-23T04:59:37.801Z,3004.00
2019-04-23T05:02:30.371Z,3172.00
2019-04-23T05:05:58.314Z,3332.00
2019-04-23T05:06:31.159Z,3384.00
2019-04-23T05:07:27.861Z,3444.00
2019-04-23T05:08:25.931Z,3496.00
2019-04-23T05:09:25.217Z,3544.00
2019-04-23T05:10:39.145Z,3600.00
2019-04-23T05:11:26.286Z,3648.00
2019-04-23T05:12:23.774Z,3696.00
2019-04-23T05:16:22.797Z,3908.00
2019-04-23T05:17:28.095Z,3960.00
2019-04-23T05:18:23.625Z,4020.00
2019-04-23T05:20:19.961Z,4136.00
2019-04-23T05:21:43.566Z,4180.00
2019-04-23T05:22:22.586Z,4224.00
2019-04-23T05:23:21.124Z,4268.00
2019-04-23T05:24:28.689Z,4320.00
2019-04-23T05:25:12.538Z,4376.00
2019-04-23T05:26:23.959Z,4432.00
2019-04-23T05:27:11.059Z,4488.00
2019-04-23T05:28:31.215Z,4536.00
2019-04-23T05:29:11.455Z,4568.00
2019-04-23T05:31:19.030Z,4652.00
2019-04-23T05:32:14.733Z,4720.00
2019-04-23T05:33:18.447Z,4784.00
2019-04-23T05:34:14.921Z,4824.00
2019-04-23T05:35:29.975Z,4876.00
2019-04-23T05:37:26.304Z,4972.00
2019-04-23T05:38:29.087Z,5024.00
2019-04-23T05:39:24.723Z,5084.00
2019-04-23T05:40:24.196Z,5140.00
2019-04-23T05:42:22.628Z,5212.00
2019-04-23T05:43:22.286Z,5272.00
2019-04-23T05:45:18.483Z,5372.00
2019-04-23T05:46:21.265Z,5404.00
2019-04-23T05:47:25.486Z,5436.00
2019-04-23T05:48:21.554Z,5464.00
2019-04-23T05:50:30.212Z,5564.00
2019-04-23T05:51:24.285Z,5620.00
2019-04-23T05:52:17.723Z,5664.00
2019-04-23T05:53:33.465Z,5696.00
2019-04-23T05:54:19.048Z,5728.00
2019-04-23T05:55:13.270Z,5764.00
2019-04-23T05:56:15.156Z,5796.00
2019-04-23T05:57:20.023Z,5844.00
2019-04-23T06:00:15.905Z,5980.00
2019-04-23T06:01:39.858Z,6016.00
2019-04-23T06:02:20.760Z,6048.00
2019-04-23T06:03:16.352Z,6104.00
2019-04-23T06:04:21.636Z,6152.00
2019-04-23T06:05:17.580Z,6196.00
2019-04-23T06:06:21.629Z,6244.00
2019-04-23T06:07:35.867Z,6260.00
2019-04-23T06:08:21.598Z,6304.00
2019-04-23T06:10:11.011Z,6420.00
2019-04-23T06:11:18.536Z,6456.00
2019-04-23T06:12:13.518Z,6532.00
2019-04-23T06:13:18.623Z,6612.00
2019-04-23T06:15:11.225Z,6708.00
2019-04-23T06:16:25.302Z,6804.00
2019-04-23T06:17:24.984Z,6916.00
2019-04-23T06:18:17.131Z,7424.00
2019-04-23T06:19:16.921Z,13760.00
2019-04-23T06:20:15.128Z,24800.00
2019-04-23T06:21:15.286Z,35424.00
2019-04-23T06:22:22.390Z,39872.00
2019-04-23T06:23:27.020Z,41216.00
2019-04-23T06:24:22.164Z,42304.00
2019-04-23T06:25:33.671Z,42912.00
2019-04-23T06:28:12.767Z,45376.00
2019-04-23T06:29:20.519Z,46688.00
2019-04-23T06:30:17.485Z,47776.00
2019-04-23T06:31:15.069Z,48480.00
2019-04-23T06:32:16.762Z,49408.00
2019-04-23T06:34:17.159Z,49632.00
2019-04-23T06:35:11.836Z,50240.00
2019-04-23T06:36:19.006Z,50976.00
2019-04-23T06:37:16.097Z,52000.00
2019-04-23T06:38:39.243Z,52960.00
2019-04-23T06:39:16.185Z,54560.00
2019-04-23T06:40:13.861Z,55232.00
2019-04-23T06:41:15.691Z,55584.00
2019-04-23T06:42:14.436Z,56064.00
2019-04-23T06:43:22.596Z,56384.00
2019-04-23T06:44:19.127Z,56160.00
2019-04-23T06:45:10.457Z,56896.00
2019-04-23T06:46:11.893Z,56992.00
2019-04-23T06:47:17.033Z,56672.00
2019-04-23T06:48:22.209Z,57056.00
2019-04-23T06:49:17.270Z,55872.00
2019-04-23T06:50:27.117Z,55488.00
2019-04-23T06:51:21.791Z,54272.00
2019-04-23T06:53:14.558Z,53408.00
2019-04-23T06:54:18.726Z,53184.00
2019-04-23T06:55:15.769Z,51936.00
2019-04-23T06:56:17.697Z,52320.00
2019-04-23T06:58:19.106Z,51424.00
2019-04-23T06:59:22.328Z,51168.00
2019-04-23T07:00:19.798Z,51040.00
2019-04-23T07:01:09.704Z,50720.00
2019-04-23T07:03:10.828Z,49664.00
2019-04-23T07:04:17.272Z,49600.00
2019-04-23T07:05:16.188Z,50240.00
2019-04-23T07:06:30.144Z,50816.00
2019-04-23T07:08:30.626Z,51424.00
2019-04-23T07:09:35.381Z,51328.00
2019-04-23T07:10:09.782Z,51296.00
2019-04-23T07:12:15.122Z,52384.00
2019-04-23T07:13:24.295Z,52704.00
2019-04-23T07:14:07.344Z,53856.00
2019-04-23T07:15:30.971Z,54176.00
2019-04-23T07:17:09.207Z,56448.00
2019-04-23T07:18:11.577Z,58112.00
2019-04-23T07:19:27.247Z,59936.00
2019-04-23T07:20:15.124Z,61344.00
2019-04-23T07:23:26.060Z,65632.00
2019-04-23T07:24:15.192Z,66816.00
2019-04-23T07:25:15.399Z,68128.00
2019-04-23T07:26:29.695Z,68960.00
2019-04-23T07:27:14.886Z,70336.00
2019-04-23T07:28:18.109Z,71264.00
2019-04-23T07:29:15.681Z,72000.00
2019-04-23T07:30:15.552Z,73696.00
2019-04-23T07:31:20.343Z,75104.00
2019-04-23T07:32:15.132Z,75968.00
2019-04-23T07:33:14.245Z,76192.00
2019-04-23T07:34:25.776Z,75936.00
2019-04-23T07:35:13.749Z,78784.00
2019-04-23T07:36:17.853Z,78848.00
2019-04-23T07:37:13.700Z,80160.00
2019-04-23T07:38:21.930Z,80896.00
2019-04-23T07:39:18.966Z,80160.00
2019-04-23T07:41:23.428Z,78624.00
2019-04-23T07:42:16.860Z,77664.00
2019-04-23T07:43:18.420Z,76352.00
2019-04-23T07:44:21.025Z,76128.00
2019-04-23T07:45:33.153Z,74784.00
2019-04-23T07:46:25.590Z,73696.00
2019-04-23T07:48:16.717Z,71904.00
2019-04-23T07:49:17.701Z,70976.00
2019-04-23T07:50:26.180Z,69184.00
2019-04-23T07:51:14.091Z,68160.00
2019-04-23T07:52:14.943Z,66816.00
2019-04-23T07:54:21.254Z,65824.00
2019-04-23T07:55:20.121Z,64800.00
2019-04-23T07:56:14.636Z,64000.00
2019-04-23T07:57:29.205Z,63424.00
2019-04-23T07:58:19.551Z,62176.00
2019-04-23T07:59:20.687Z,61376.00
2019-04-23T08:00:18.243Z,59968.00
2019-04-23T08:01:14.379Z,60064.00
2019-04-23T08:02:21.946Z,58240.00
2019-04-23T08:04:18.254Z,58080.00
2019-04-23T08:05:32.027Z,56064.00
2019-04-23T08:06:15.259Z,56416.00
2019-04-23T08:07:14.690Z,56544.00
2019-04-23T08:08:15.128Z,55520.00
2019-04-23T08:09:19.124Z,54976.00
2019-04-23T08:10:17.005Z,53184.00
2019-04-23T08:12:19.294Z,51360.00
2019-04-23T08:13:15.863Z,51424.00
2019-04-23T08:14:07.913Z,47680.00
2019-04-23T08:15:14.998Z,48448.00
2019-04-23T08:16:25.918Z,48576.00
2019-04-23T08:17:14.054Z,47296.00
2019-04-23T08:19:14.256Z,48096.00
2019-04-23T08:20:11.139Z,48864.00
2019-04-23T08:21:16.416Z,49152.00
2019-04-23T08:23:21.033Z,49568.00
2019-04-23T08:24:10.255Z,50112.00
2019-04-23T08:25:14.295Z,51488.00
2019-04-23T08:26:24.212Z,53088.00
2019-04-23T08:27:18.621Z,55904.00
2019-04-23T08:28:29.044Z,57664.00
2019-04-23T08:29:14.942Z,59616.00
2019-04-23T08:30:09.447Z,60960.00
2019-04-23T08:31:15.152Z,62112.00
2019-04-23T08:33:12.165Z,66016.00
2019-04-23T08:35:16.392Z,71008.00
2019-04-23T08:37:15.337Z,76544.00
2019-04-23T08:38:21.021Z,79744.00
2019-04-23T08:39:18.279Z,81888.00
2019-04-23T08:40:14.685Z,85984.00
2019-04-23T08:43:27.922Z,101984.00
2019-04-23T08:44:24.008Z,103040.00
2019-04-23T08:45:28.436Z,106752.00
2019-04-23T08:46:14.000Z,108992.00
2019-04-23T08:50:19.365Z,115456.00
2019-04-23T08:51:25.982Z,116096.00
2019-04-23T08:52:18.741Z,117984.00
2019-04-23T08:54:27.965Z,118208.00
2019-04-23T08:55:13.683Z,119040.00
2019-04-23T08:56:16.970Z,121568.00
2019-04-23T08:57:17.141Z,118944.00
2019-04-23T08:59:20.539Z,120000.00
2019-04-23T09:00:14.736Z,121472.00
2019-04-23T09:01:10.630Z,123648.00
2019-04-23T09:02:24.197Z,122880.00
2019-04-23T09:03:18.730Z,122176.00
2019-04-23T09:04:21.481Z,121056.00
2019-04-23T09:06:10.770Z,119136.00
2019-04-23T09:07:16.548Z,119200.00
2019-04-23T09:09:20.279Z,121280.00
2019-04-23T09:10:19.654Z,121792.00
2019-04-23T09:11:32.465Z,123168.00
2019-04-23T09:12:18.904Z,122912.00
2019-04-23T09:14:27.759Z,126176.00
2019-04-23T09:15:18.299Z,128512.00
2019-04-23T09:16:09.123Z,132480.00
2019-04-23T09:18:16.036Z,130592.00
2019-04-23T09:19:20.029Z,127776.00
2019-04-23T09:21:16.089Z,122752.00
2019-04-23T09:22:33.412Z,124256.00
2019-04-23T09:23:13.199Z,125664.00
2019-04-23T09:24:09.567Z,124608.00
2019-04-23T09:25:20.177Z,131744.00
2019-04-23T09:26:07.593Z,142784.00
2019-04-23T09:28:16.109Z,143968.00
2019-04-23T09:29:14.867Z,126176.00
2019-04-23T09:30:13.152Z,108160.00
2019-04-23T09:31:27.973Z,100160.00
2019-04-23T09:32:22.340Z,98432.00
2019-04-23T09:33:21.667Z,100256.00
2019-04-23T09:34:11.315Z,98560.00
2019-04-23T09:35:24.134Z,99136.00
2019-04-23T09:36:18.168Z,99616.00
2019-04-23T09:37:20.639Z,97504.00
2019-04-23T09:38:11.588Z,94848.00
2019-04-23T09:39:12.517Z,93888.00
2019-04-23T09:40:25.335Z,90688.00
2019-04-23T09:42:14.747Z,85856.00
2019-04-23T09:43:13.778Z,81344.00
2019-04-23T09:44:39.856Z,80448.00
2019-04-23T09:45:15.161Z,78624.00
2019-04-23T09:46:17.663Z,77056.00
2019-04-23T09:47:16.012Z,75520.00
2019-04-23T09:48:31.786Z,73120.00
2019-04-23T09:49:26.049Z,72160.00
2019-04-23T09:50:16.014Z,70368.00
2019-04-23T09:52:13.361Z,58720.00
2019-04-23T09:53:17.090Z,26592.00
2019-04-23T09:55:24.182Z,11064.00
2019-04-23T09:56:14.633Z,10800.00
2019-04-23T09:57:10.589Z,10736.00
2019-04-23T09:58:11.880Z,10664.00
2019-04-23T09:59:25.271Z,10436.00
2019-04-23T10:00:25.267Z,10320.00
2019-04-23T10:01:20.235Z,10292.00
2019-04-23T10:02:05.515Z,10240.00
2019-04-23T10:03:02.406Z,10164.00
2019-04-23T10:04:00.206Z,10148.00
2019-04-23T10:05:01.310Z,10116.00
2019-04-23T10:05:53.396Z,10156.00
2019-04-23T10:07:01.592Z,10148.00
2019-04-23T10:07:54.757Z,10060.00
2019-04-23T10:08:51.941Z,9984.00
2019-04-23T10:09:47.716Z,10036.00
2019-04-23T10:10:45.011Z,10052.00
2019-04-23T10:11:45.174Z,10004.00
2019-04-23T10:12:45.756Z,9932.00
2019-04-23T10:13:46.437Z,9952.00
2019-04-23T10:14:53.900Z,9992.00
2019-04-23T10:15:48.019Z,9972.00
2019-04-23T10:16:45.210Z,9824.00
2019-04-23T10:17:46.441Z,9652.00
2019-04-23T10:18:44.877Z,9600.00
2019-04-23T10:19:46.687Z,9644.00
2019-04-23T10:20:44.624Z,9680.00
2019-04-23T10:21:47.048Z,9720.00
2019-04-23T10:22:44.387Z,9672.00
2019-04-23T10:23:45.220Z,9632.00
2019-04-23T10:24:45.487Z,9684.00
2019-04-23T10:25:45.711Z,9692.00
2019-04-23T10:26:45.772Z,9684.00
2019-04-23T10:27:45.351Z,9788.00
2019-04-23T10:28:44.327Z,9828.00
2019-04-23T10:29:45.758Z,9744.00
2019-04-23T10:30:44.918Z,9580.00
2019-04-23T10:31:44.180Z,9772.00
2019-04-23T10:32:45.293Z,9980.00
2019-04-23T10:33:44.190Z,10056.00
2019-04-23T10:34:53.443Z,9932.00
2019-04-23T10:35:53.097Z,9876.00
2019-04-23T10:36:45.113Z,9812.00
2019-04-23T10:37:52.932Z,9800.00
2019-04-23T10:38:53.998Z,9804.00
2019-04-23T10:39:52.752Z,9436.00
2019-04-23T10:40:48.474Z,9056.00
2019-04-23T10:41:47.473Z,9676.00
2019-04-23T10:42:47.576Z,9736.00
2019-04-23T10:43:48.016Z,9840.00
2019-04-23T10:44:46.419Z,10144.00
2019-04-23T10:46:03.863Z,10368.00
2019-04-23T10:47:11.522Z,10272.00
2019-04-23T10:48:22.957Z,10072.00
2019-04-23T10:49:43.969Z,9748.00
2019-04-23T10:50:17.285Z,9524.00
2019-04-23T10:51:23.901Z,9604.00
2019-04-23T10:53:26.238Z,9672.00
2019-04-23T10:54:26.403Z,9552.00
2019-04-23T10:55:14.548Z,9384.00
2019-04-23T10:56:20.034Z,9304.00
2019-04-23T10:57:11.264Z,9264.00
2019-04-23T10:58:17.430Z,9340.00
2019-04-23T10:59:19.842Z,9428.00
2019-04-23T11:00:09.691Z,9356.00
2019-04-23T11:01:16.363Z,9280.00
2019-04-23T11:03:38.159Z,9400.00
2019-04-23T11:05:16.232Z,9260.00
2019-04-23T11:06:16.558Z,9156.00
2019-04-23T11:07:25.883Z,9076.00
2019-04-23T11:08:13.193Z,9048.00
2019-04-23T11:09:27.246Z,9040.00
2019-04-23T11:11:18.727Z,9064.00
2019-04-23T11:12:23.974Z,9048.00
2019-04-23T11:13:17.743Z,8940.00
2019-04-23T11:14:23.142Z,8836.00
2019-04-23T11:16:39.936Z,8748.00
2019-04-23T11:17:21.520Z,8620.00
2019-04-23T11:18:04.792Z,8560.00
2019-04-23T11:19:15.677Z,8592.00
2019-04-23T11:22:36.192Z,8652.00
2019-04-23T11:23:05.027Z,8660.00
2019-04-23T11:24:21.281Z,8588.00
2019-04-23T11:26:19.935Z,8268.00
2019-04-23T11:27:16.025Z,8260.00
2019-04-23T11:28:17.359Z,8328.00
2019-04-23T11:29:21.030Z,8364.00
2019-04-23T11:30:33.289Z,8272.00
2019-04-23T11:31:26.288Z,8184.00
2019-04-23T11:33:15.239Z,7848.00
2019-04-23T11:34:20.301Z,7728.00
2019-04-23T11:36:43.596Z,7784.00
2019-04-23T11:39:12.834Z,7856.00
2019-04-23T11:40:15.660Z,7832.00
2019-04-23T11:41:21.467Z,7920.00
2019-04-23T11:42:19.302Z,7872.00
2019-04-23T11:43:22.789Z,7860.00
2019-04-23T11:44:22.175Z,7896.00
2019-04-23T11:45:29.383Z,7896.00
2019-04-23T11:47:33.125Z,7688.00
2019-04-23T11:49:33.744Z,7508.00
2019-04-23T11:50:19.019Z,7372.00
2019-04-23T11:52:18.885Z,7412.00
2019-04-23T11:56:35.062Z,7484.00
2019-04-23T11:57:32.581Z,7484.00
2019-04-23T11:59:36.421Z,7360.00
2019-04-23T12:00:30.895Z,7364.00
2019-04-23T12:01:38.720Z,7364.00
2019-04-23T12:02:23.205Z,7476.00
2019-04-23T12:03:07.442Z,7504.00
2019-04-23T12:04:42.174Z,7508.00
2019-04-23T12:05:26.587Z,7420.00
2019-04-23T12:07:22.938Z,7384.00
2019-04-23T12:08:28.246Z,7376.00
2019-04-23T12:09:26.030Z,7256.00
2019-04-23T12:12:25.538Z,7224.00
2019-04-23T12:13:30.174Z,7252.00
2019-04-23T12:14:32.852Z,7288.00
2019-04-23T12:15:26.775Z,7408.00
2019-04-23T12:16:20.449Z,7512.00
2019-04-23T12:17:24.929Z,7628.00
2019-04-23T12:18:28.302Z,7708.00
2019-04-23T12:19:46.099Z,7932.00
2019-04-23T12:20:21.308Z,8344.00
2019-04-23T12:21:22.499Z,9012.00
2019-04-23T12:23:31.983Z,10736.00
2019-04-23T12:24:28.848Z,11268.00
2019-04-23T12:25:26.836Z,11452.00
2019-04-23T12:26:30.015Z,11400.00
2019-04-23T12:27:23.218Z,11320.00
2019-04-23T12:28:24.617Z,11340.00
2019-04-23T12:29:27.675Z,11556.00
2019-04-23T12:30:30.259Z,11832.00
2019-04-23T12:31:15.947Z,11604.00
2019-04-23T12:32:35.710Z,12108.00
2019-04-23T12:34:25.722Z,11796.00
2019-04-23T12:35:21.519Z,11616.00
2019-04-23T12:36:34.014Z,10832.00
2019-04-23T12:37:24.236Z,10680.00
2019-04-23T12:39:21.526Z,10312.00
2019-04-23T12:40:19.913Z,10032.00
2019-04-23T12:41:21.132Z,9416.00
2019-04-23T12:42:43.557Z,8924.00
2019-04-23T12:43:17.563Z,8788.00
2019-04-23T12:44:19.859Z,9028.00
2019-04-23T12:46:16.375Z,9800.00
2019-04-23T12:47:37.977Z,9860.00
2019-04-23T12:48:32.263Z,10116.00
2019-04-23T12:49:35.683Z,10192.00
2019-04-23T12:50:45.034Z,10216.00
2019-04-23T12:51:28.274Z,10288.00
2019-04-23T12:52:21.422Z,10360.00
2019-04-23T12:54:38.357Z,10348.00
2019-04-23T12:55:31.548Z,10212.00
2019-04-23T12:56:21.035Z,9632.00
2019-04-23T12:57:18.007Z,9528.00
2019-04-23T12:58:20.374Z,8956.00
2019-04-23T12:59:17.130Z,8604.00
2019-04-23T13:00:22.475Z,8376.00
2019-04-23T13:01:13.998Z,8036.00
2019-04-23T13:02:25.285Z,7776.00
2019-04-23T13:03:21.568Z,7532.00
2019-04-23T13:04:21.884Z,7336.00
2019-04-23T13:05:14.477Z,7188.00
2019-04-23T13:06:17.076Z,6992.00
2019-04-23T13:07:29.293Z,6788.00
2019-04-23T13:08:26.821Z,6728.00
2019-04-23T13:09:34.213Z,6808.00
2019-04-23T13:10:22.593Z,6752.00
2019-04-23T13:11:25.395Z,6716.00
2019-04-23T13:12:33.256Z,6652.00
2019-04-23T13:13:25.671Z,6544.00
2019-04-23T13:14:26.483Z,6504.00
2019-04-23T13:15:18.927Z,6444.00
2019-04-23T13:16:33.521Z,6340.00
2019-04-23T13:17:41.548Z,6248.00
2019-04-23T13:18:17.425Z,6184.00
2019-04-23T13:19:32.770Z,6172.00
2019-04-23T13:21:38.427Z,6208.00
2019-04-23T13:22:24.283Z,6184.00
2019-04-23T13:24:18.760Z,6116.00
2019-04-23T13:25:19.174Z,6092.00
2019-04-23T13:26:31.409Z,6104.00
2019-04-23T13:27:26.106Z,6120.00
2019-04-23T13:29:28.698Z,6052.00
2019-04-23T13:30:25.409Z,5984.00
2019-04-23T13:32:23.904Z,5924.00
2019-04-23T13:33:30.231Z,5900.00
2019-04-23T13:34:23.044Z,5844.00
2019-04-23T13:35:28.149Z,5772.00
2019-04-23T13:36:28.735Z,5656.00
2019-04-23T13:37:19.084Z,5600.00
2019-04-23T13:38:27.599Z,5584.00
2019-04-23T13:39:21.243Z,5608.00
2019-04-23T13:40:24.485Z,5672.00
2019-04-23T13:41:21.629Z,5744.00
2019-04-23T13:42:22.940Z,5720.00
2019-04-23T13:43:37.961Z,5716.00
2019-04-23T13:44:21.431Z,5616.00
2019-04-23T13:45:33.799Z,5584.00
2019-04-23T13:46:33.023Z,5544.00
2019-04-23T13:47:36.069Z,5520.00
2019-04-23T13:49:18.515Z,5676.00
2019-04-23T13:50:32.784Z,5672.00
2019-04-23T13:51:20.773Z,5668.00
2019-04-23T13:52:43.965Z,5744.00
2019-04-23T13:53:28.508Z,5792.00
2019-04-23T13:54:27.679Z,5804.00
2019-04-23T13:55:16.573Z,5804.00
2019-04-23T13:57:49.708Z,5772.00
2019-04-23T13:58:22.598Z,5728.00
2019-04-23T13:59:29.064Z,5732.00
2019-04-23T14:00:24.817Z,5724.00
2019-04-23T14:02:23.413Z,5784.00
2019-04-23T14:03:27.797Z,5876.00
2019-04-23T14:04:33.523Z,5920.00
2019-04-23T14:05:22.034Z,5884.00
2019-04-23T14:06:20.828Z,5888.00
2019-04-23T14:07:23.239Z,5804.00
2019-04-23T14:08:25.828Z,5604.00
2019-04-23T14:09:19.980Z,5380.00
2019-04-23T14:11:23.221Z,5200.00
2019-04-23T14:12:17.688Z,5156.00
2019-04-23T14:14:25.452Z,5080.00
2019-04-23T14:15:24.191Z,5360.00
2019-04-23T14:16:33.954Z,5472.00
2019-04-23T14:17:26.890Z,5672.00
2019-04-23T14:18:50.594Z,5896.00
2019-04-23T14:19:06.751Z,6068.00
2019-04-23T14:20:21.530Z,6320.00
2019-04-23T14:21:25.371Z,6700.00
2019-04-23T14:22:43.469Z,7196.00
2019-04-23T14:23:27.616Z,7664.00
2019-04-23T14:24:42.414Z,8072.00
2019-04-23T14:25:22.344Z,8436.00
2019-04-23T14:27:22.673Z,9112.00
2019-04-23T14:28:21.657Z,9572.00
2019-04-23T14:29:22.974Z,9824.00
2019-04-23T14:30:25.503Z,9804.00
2019-04-23T14:36:21.438Z,9440.00
2019-04-23T14:38:27.179Z,9120.00
2019-04-23T14:39:18.755Z,9104.00
2019-04-23T14:43:25.832Z,10004.00
2019-04-23T14:44:12.985Z,10316.00
2019-04-23T14:45:29.663Z,10664.00
2019-04-23T14:49:21.983Z,11408.00
2019-04-23T14:51:26.357Z,11040.00
2019-04-23T14:52:21.635Z,10640.00
2019-04-23T14:54:22.904Z,10316.00
2019-04-23T14:56:17.175Z,9848.00
2019-04-23T14:58:26.616Z,9464.00
2019-04-23T14:59:10.379Z,9612.00
2019-04-23T15:00:18.580Z,9496.00
2019-04-23T15:02:22.845Z,9432.00
2019-04-23T15:04:14.770Z,9064.00
2019-04-23T15:05:21.125Z,8976.00